Aviation Digital Data Service (ADDS)

Output produced by METARs form (2238 UTC 30 March 2017)
found at http://www.aviationweather.gov/adds/metars/
 
KABQ 301724Z 3018/3118 23009KT P6SM BKN200 
     FM302100 24015G25KT P6SM FEW110 BKN200 
     FM310200 20011KT P6SM BKN200 
     FM310600 15009KT P6SM BKN200 
     FM311500 17010G18KT P6SM FEW150 SCT200 
     FM311730 21022G32KT P6SM FEW150 SCT200
       
KABY 301728Z 3018/3118 20012KT P6SM SCT040 
     FM310000 19006KT P6SM BKN100 
     FM310400 20006KT 3SM TSRA BKN025CB 
     FM311000 24005KT P6SM BKN040
       
KACT 302052Z 3021/3118 27012KT P6SM FEW250 
     FM310000 19006KT P6SM SCT250 
     FM311700 18013KT P6SM SCT250
       
KACV 301720Z 3018/3118 35009G15KT P6SM SCT050 
     FM302200 34016G26KT P6SM SCT040 SCT250 
     FM310200 35015G20KT P6SM SCT250 
     FM310600 06004KT P6SM SKC 
     FM311000 06003KT P6SM SCT080
       
TAF KADW 301700Z 3017/3123 13012KT 9999 FEW040 OVC060 QNH3002INS 
     BECMG 3105/3106 12009KT 9999 BKN010 OVC020 QNH2996INS 
     BECMG 3107/3108 10009KT 8000 -SHRA OVC007 QNH2990INS 
     BECMG 3110/3111 11006KT 6000 -SHRA OVC003 WS020/19040KT QNH2980INS 
     BECMG 3117/3118 15009KT 8000 -SHRA OVC005 QNH2964INS 
     BECMG 3119/3120 20009KT 8000 -SHRA OVC008 QNH2964INS 
     TEMPO 3121/3123 22010G15KT -TSRA OVC008CB TX13/3117Z TN06/3103Z
       
KAEG 301724Z 3018/3118 23011KT P6SM BKN200 
     FM302030 24017G27KT P6SM FEW110 BKN200 
     FM310200 22011KT P6SM BKN200 
     FM311500 19010G18KT P6SM FEW150 SCT200 
     FM311700 22024G34KT P6SM FEW150 SCT200
       
KAEX 301720Z 3018/3118 28010KT P6SM SCT150 
     FM310500 VRB03KT 3SM BR SKC 
     FM311400 17007KT P6SM SKC
       
KAFW 302052Z 3021/3118 30016KT P6SM FEW060 
     FM310000 25006KT P6SM FEW250 
     FM310300 13005KT P6SM FEW250 
     FM311700 17013KT P6SM SCT250
       
KAGC 301801Z 3018/3118 10012KT 6SM -RA OVC060 
     TEMPO 3018/3019 3SM -TSRA BKN030CB 
     FM310300 14009KT P6SM VCSH OVC050 WS020/20040KT 
     FM311000 16012KT 4SM -RA OVC015 WS020/20045KT 
     FM311200 18006KT 3SM -SHRA BKN010 
     FM311400 15008KT 3SM -SHRA OVC008
       
KAGS 302217Z 3022/3118 16008KT P6SM VCSH SCT040 BKN080 
     FM310600 17006KT 4SM -SHRA BR SCT008 BKN020 
     FM311500 24015G25KT P6SM BKN050
       
KAHN 301734Z 3018/3118 17004KT P6SM SCT040 BKN100 
     FM310000 17006KT P6SM VCSH BKN060 
     FM310200 16008KT 5SM -SHRA BKN030 
     PROB30 3107/3110 VRB20G30KT 3SM TSRA BKN020CB 
     FM311000 22008KT P6SM VCSH OVC010 
     FM311500 26010KT P6SM SCT030
       
KAIA 301720Z 3018/3118 14012KT P6SM BKN150 
     FM310100 11012KT P6SM VCSH BKN040 
     FM310600 09011KT 2SM -RA BR OVC015
       
KALB 302114Z 3021/3118 05003KT P6SM OVC150 
     FM302300 05003KT P6SM BKN100 
     FM310600 VRB03KT 4SM -SN BR OVC025 
     FM310900 10004KT 1/2SM SN FG OVC007 
     FM311500 11006KT 2SM -RASNPL BR OVC010
       
KALS 302059Z 3021/3118 17012G22KT P6SM SCT140 BKN200 
     FM310300 18008KT P6SM SCT120 BKN200 
     FM311100 VRB04KT P6SM SCT120 BKN200 
     FM311600 17012KT P6SM BKN150
       
KALW 302026Z 3020/3118 20014KT P6SM VCSH SCT035 BKN050 
     FM310200 19009KT P6SM FEW070 
     FM311400 18008KT P6SM SCT040
       
KAMA 301744Z 3018/3118 26008KT P6SM SCT250 
     FM302300 16010KT P6SM SCT250 
     FM310900 14015KT P6SM SCT010 
     FM311700 15016G23KT P6SM BKN250
       
KANB 301720Z 3018/3118 18007G15KT P6SM FEW027 BKN035 
     FM302300 23006KT P6SM RA VCTS BKN030CB 
     TEMPO 3103/3105 19010G20KT 3SM TSRA OVC025CB 
     FM310800 25003KT P6SM SHRA BKN030 
     FM311200 25004KT P6SM SCT050
       
KAND 301936Z 3020/3118 06006KT P6SM VCSH SCT040 OVC090 
     TEMPO 3020/3023 SCT025 BKN040 
     FM302300 13008KT 6SM -SHRA BR VCTS BKN035CB 
     FM310200 15010G17KT 4SM -SHRA BR VCTS OVC015CB 
     PROB30 3105/3111 4SM TSRA OVC007CB 
     FM311100 20008KT 4SM -SHRA BR OVC008 
     FM311500 24013G22KT P6SM SCT050
       
KAOO 302234Z 3023/3118 13012KT 2SM TSRA BKN030CB OVC050 WS020/17035KT 
     FM302305 13012KT P6SM -SHRA BKN035 OVC060 WS020/17035KT 
     FM310200 14010KT 3SM BR VCSH OVC015 WS020/18035KT 
     FM310900 15010KT 1SM -RA BR OVC007 WS020/20042KT 
     PROB30 3112/3118 3SM -TSRA OVC012CB
       
KAPA 301735Z 3018/3118 VRB05KT P6SM SCT100 BKN300 
     FM302300 09010KT P6SM VCSH SCT060 BKN100 
     FM310400 15012KT P6SM SCT060 OVC100 
     FM311100 31006KT P6SM VCFG SCT006 BKN090 
     FM311700 06010KT P6SM VCSH BKN015 OVC025
       
KAPF 302100Z 3021/3118 20012G18KT P6SM FEW060 
     FM310100 VRB04KT P6SM SCT250 
     FM311300 16012KT P6SM SCT035
       
KAPN 301725Z 3018/3118 10012KT P6SM VCSH OVC080 
     FM302000 09012G20KT P6SM VCSH OVC050 
     FM302200 08013G21KT 5SM -RASN OVC035 
     FM310300 08015G24KT 3SM -SN OVC015 
     FM310600 08014G23KT 3SM -SNRA OVC015 
     FM311000 07014G22KT 4SM -RA OVC015
       
KARA 302047Z 3021/3118 19011KT P6SM SCT025 
     FM310000 25005KT P6SM SKC 
     FM310500 VRB03KT 3SM BR SKC 
     FM311400 16005KT P6SM SKC
       
KASD 301726Z 3018/3118 VRB04KT 5SM RA BR OVC100 
     FM302100 17007KT P6SM BKN035 
     FM310000 VRB04KT P6SM BKN060 
     FM310300 VRB03KT P6SM FEW150
       
KASE 301739Z 3018/3118 17004KT P6SM BKN060 OVC100 
     FM310300 17005KT P6SM -SHRA SCT020 BKN040 
     FM310900 15007KT P6SM VCSH SCT030 BKN060
       
KASN 301722Z 3017/3118 18010G17KT P6SM BKN030 
     FM302200 23006KT P6SM RA VCTS BKN030CB 
     TEMPO 3102/3104 19010G20KT 3SM TSRA OVC025CB 
     FM310900 25003KT P6SM SHRA BKN030 
     FM311200 25004KT P6SM SCT050
       
KAST 301735Z 3018/3118 30007KT P6SM SCT025 BKN045 
     FM310100 30006KT P6SM BKN040 
     FM310800 VRB02KT 5SM BR BKN015
       
KATW 302049Z 3021/3118 04015G27KT 6SM -RA OVC004 
     TEMPO 3021/3023 3SM -RASN 
     FM302300 04015G27KT 4SM -SN OVC006 
     FM310300 04018G30KT P6SM -DZ OVC007 
     FM311100 03013G24KT P6SM OVC018 
     FM311600 03013G25KT P6SM OVC070
       
KATL 302135Z 3022/3124 19015G22KT P6SM FEW060 BKN200 
     FM302300 20012G20KT P6SM VCSH BKN050 
     FM310300 19010KT 5SM -SHRA BKN030 
     TEMPO 3104/3108 VRB20G30KT 3SM TSRA BKN020CB 
     FM310800 23010KT P6SM VCSH OVC015 
     FM311500 27014KT P6SM BKN030 
     FM311800 27015G22KT P6SM SCT050
       
KATY 302009Z 3020/3118 05007KT P6SM OVC025 
     FM310100 07007KT P6SM OVC030 
     FM311600 04009KT P6SM SCT120
       
KAUG 301722Z 3018/3118 34011KT P6SM SCT050 SCT150 
     FM302300 35006KT P6SM FEW250 
     FM310600 VRB03KT P6SM SCT250
       
KAUS 301720Z 3018/3124 21005KT P6SM FEW250 
     FM311600 19016KT P6SM SCT250
       
KAUW 301749Z 3018/3118 07012G23KT P6SM -DZ BKN012 
     TEMPO 3018/3022 -RA BKN007 
     FM302200 06011G20KT P6SM -DZ BKN008 
     FM310900 03010G17KT P6SM BKN008 
     FM311200 03009KT P6SM BKN020 
     FM311500 03012G21KT P6SM BKN100
       
KAVL 301932Z 3020/3118 12007KT P6SM VCSH OVC006 
     FM302100 16008KT 4SM -SHRA OVC004 
     FM310300 16009KT 2SM -SHRA BR OVC003 
     PROB30 3106/3112 1SM TSRA BR OVC003CB 
     FM311300 22008KT P6SM VCSH BKN015 
     FM311500 23010KT P6SM BKN045
       
KAVP 301720Z 3018/3118 VRB03KT P6SM SCT200 
     FM302200 17006KT P6SM BKN060 
     FM310400 15007KT 5SM -RA OVC025 
     FM310600 15008KT 3SM -RA OVC015 
     FM311300 13012G22KT 1 1/2SM -RA OVC008
       
KAXN 301751Z 3018/3118 11012G20KT P6SM SCT030 BKN050 
     FM310600 04005KT P6SM SCT015 SCT050
       
KAZO 302131Z 3022/3118 10012G18KT 4SM SHRA VCTS OVC010CB 
     TEMPO 3022/3023 26020G30KT 2SM -TSRA OVC005CB 
     FM302300 09009KT 4SM SHRA VCTS OVC003CB 
     FM310100 09008KT 4SM -SHRA BR OVC003 
     FM310400 09006KT 2SM -SHRA BR OVC003 
     FM311100 05004KT 3/4SM -DZ OVC002